Página principal
METAR-TAF:

METAR-TAF

Aeroportos :

Colmenar Viejo, Espanha

latitude: 40-39N, longitude: 003-44W, altura: -999 m

Observação actual do tempo

O boletim foi feito há 11 horas e 50 minutos, às 18:00 UTC
Vento 6 kt de oeste
Temperatura 12°C
Humidade 88%
Pressão 1014 hPa
Visibilidade 10 km ou mais
Nuvens dispersasa uma altura de 3000 ft, Cumulonimbus.
Nuvens dispersasa uma altura de 4000 ft

METAR: LECV 251800Z 28006KT 9999 SCT030CB SCT040 12/10 Q1014

Hora: 07:50 (05:50 UTC)


TAF: em falta

Observações e previsões do tempo de mais de 4000 aeroportos (mensagens METAR e TAF).

As estações disponíveis são os pontos amarelos e vermelhos sobre o mapa.

Mova o rato sobre o mapa para ver o nome da estação.

Depois clique no ponto para visualizar as observações e previsões meteorológicas.

Para alterar o mapa : clique nos botões verdes com uma cruz preta para aumentar o zoom; no botão verde com uma pitada de zoom; ou nas setas verdes para mapas adjacentes.


METAR-TAF: